Time;durP1;ratioP1;P1;durP2;ratioP2;P2;SDS_P1;SDS_P2;PMS_P1;PMS_P2;Temp;Humidity;BMP_temperature;BMP_pressure;BME280_temperature;BME280_humidity;BME280_pressure;Samples;Min_cycle;Max_cycle;Signal;HPM_P1;HPM_P2
2022/02/19 00:04:06;;;;;;;3.88;0.70;;;;;;;;;;4859866;29;20044;-86
2022/02/19 00:21:21;;;;;;;;;;;;;;;;;;;;;
2022/02/19 00:25:26;;;;;;;;;;;;;;;;;;;;;
2022/02/19 00:54:07;;;;;;;;;;;;;;;;;;;;;
2022/02/19 01:01:23;;;;;;;;;;;;;;;;;;;;;
2022/02/19 01:07:38;;;;;;;3.38;1.42;;;;;;;;;;4797116;29;20138;-84
2022/02/19 01:20:47;;;;;;;4.97;1.05;;;;;;;;;;4826400;29;20051;-85
2022/02/19 01:28:01;;;;;;;6.47;1.08;;;;;;;;;;4896045;29;20179;-84
2022/02/19 01:34:26;;;;;;;;;;;;;;;;;;;;;
2022/02/19 01:41:21;;;;;;;2.50;0.80;;;;;;;;;;4836384;29;20049;-85
2022/02/19 02:00:53;;;;;;;6.43;0.80;;;;;;;;;;4889083;23;20754;-80
2022/02/19 02:03:18;;;;;;;7.82;1.20;;;;;;;;;;5047314;28;20037;-79
2022/02/19 02:05:44;;;;;;;5.78;1.45;;;;;;;;;;5038652;28;20040;-79
2022/02/19 02:08:10;;;;;;;6.88;1.23;;;;;;;;;;5055085;28;20500;-79
2022/02/19 02:10:36;;;;;;;5.40;0.90;;;;;;;;;;5054705;28;20468;-80
2022/02/19 02:13:04;;;;;;;9.32;1.20;;;;;;;;;;5039396;28;20048;-79
2022/02/19 02:15:31;;;;;;;11.18;1.85;;;;;;;;;;5055419;28;20066;-80
2022/02/19 02:17:58;;;;;;;9.50;2.55;;;;;;;;;;5037973;28;20047;-80
2022/02/19 02:20:24;;;;;;;6.20;1.58;;;;;;;;;;5038365;28;20148;-80
2022/02/19 02:22:50;;;;;;;4.90;0.95;;;;;;;;;;5056440;28;20025;-79
2022/02/19 02:25:25;;;;;;;5.70;1.38;;;;;;;;;;5055273;28;20111;-80
2022/02/19 02:27:51;;;;;;;6.38;1.27;;;;;;;;;;5053923;28;20052;-80
2022/02/19 02:30:17;;;;;;;8.00;1.20;;;;;;;;;;5072702;28;20278;-80
2022/02/19 02:32:43;;;;;;;9.13;1.60;;;;;;;;;;5044082;28;20108;-80
2022/02/19 02:35:08;;;;;;;7.18;1.85;;;;;;;;;;5038130;28;20074;-80
2022/02/19 02:37:34;;;;;;;7.78;1.48;;;;;;;;;;5037446;28;20058;-80
2022/02/19 02:40:00;;;;;;;5.63;1.98;;;;;;;;;;5038545;28;20485;-80
2022/02/19 02:42:26;;;;;;;4.53;1.20;;;;;;;;;;5034704;28;20048;-79
2022/02/19 02:44:52;;;;;;;3.65;1.08;;;;;;;;;;5034901;28;20048;-80
2022/02/19 02:47:18;;;;;;;7.57;1.40;;;;;;;;;;5034645;28;20037;-80
2022/02/19 02:49:44;;;;;;;8.88;1.63;;;;;;;;;;5033382;28;20041;-80
2022/02/19 02:52:10;;;;;;;10.63;1.55;;;;;;;;;;5019424;28;20037;-80
2022/02/19 02:54:36;;;;;;;8.32;1.23;;;;;;;;;;5035229;28;20094;-80
2022/02/19 02:57:03;;;;;;;5.53;1.30;;;;;;;;;;5018012;28;20402;-80
2022/02/19 02:59:28;;;;;;;4.97;1.20;;;;;;;;;;5013123;28;20450;-79
2022/02/19 03:01:54;;;;;;;11.75;1.92;;;;;;;;;;5034280;28;20045;-80
2022/02/19 03:04:20;;;;;;;4.55;1.20;;;;;;;;;;5052330;28;20041;-80
2022/02/19 03:06:45;;;;;;;5.82;1.20;;;;;;;;;;5021181;28;20110;-80
2022/02/19 03:09:11;;;;;;;7.53;1.38;;;;;;;;;;5035482;28;20277;-80
2022/02/19 03:11:38;;;;;;;5.63;1.70;;;;;;;;;;5035159;28;20051;-80
2022/02/19 03:14:06;;;;;;;7.72;1.08;;;;;;;;;;5020367;28;20534;-80
2022/02/19 03:16:33;;;;;;;4.88;1.05;;;;;;;;;;5035498;28;20052;-80
2022/02/19 03:18:58;;;;;;;5.40;1.35;;;;;;;;;;5033537;28;20325;-80
2022/02/19 03:21:25;;;;;;;4.85;1.50;;;;;;;;;;5033936;28;20567;-80
2022/02/19 03:23:52;;;;;;;3.53;1.35;;;;;;;;;;5034314;28;20025;-80
2022/02/19 03:26:18;;;;;;;3.42;1.30;;;;;;;;;;5017813;28;20041;-80
2022/02/19 03:28:44;;;;;;;4.65;1.45;;;;;;;;;;5035428;28;20564;-80
2022/02/19 03:31:10;;;;;;;7.00;1.88;;;;;;;;;;5035610;28;20041;-79
2022/02/19 03:33:35;;;;;;;5.03;1.35;;;;;;;;;;5035501;28;20033;-81
2022/02/19 03:36:01;;;;;;;4.32;1.30;;;;;;;;;;5018658;28;20115;-80
2022/02/19 03:38:27;;;;;;;6.53;1.60;;;;;;;;;;5034894;28;20116;-80
2022/02/19 03:40:52;;;;;;;7.32;1.15;;;;;;;;;;5034658;28;20037;-80
2022/02/19 03:43:18;;;;;;;9.57;1.27;;;;;;;;;;5034807;28;20090;-81
2022/02/19 03:45:45;;;;;;;5.03;1.55;;;;;;;;;;5016259;28;20559;-82
2022/02/19 03:48:11;;;;;;;4.10;1.25;;;;;;;;;;5016063;28;20041;-81
2022/02/19 03:50:37;;;;;;;4.72;1.20;;;;;;;;;;5017322;28;20037;-79
2022/02/19 03:53:03;;;;;;;6.88;1.40;;;;;;;;;;4998569;28;20049;-79
2022/02/19 03:55:29;;;;;;;12.73;1.63;;;;;;;;;;5030854;28;20156;-79
2022/02/19 03:57:54;;;;;;;2.58;0.93;;;;;;;;;;5012425;28;20555;-79
2022/02/19 04:00:20;;;;;;;6.70;1.75;;;;;;;;;;5014649;28;20037;-79
2022/02/19 04:02:46;;;;;;;4.38;0.93;;;;;;;;;;5030519;28;20048;-79
2022/02/19 04:05:13;;;;;;;2.88;1.02;;;;;;;;;;5029485;28;20326;-79
2022/02/19 04:07:38;;;;;;;4.32;1.33;;;;;;;;;;5029817;28;20037;-79
2022/02/19 04:10:06;;;;;;;7.03;1.20;;;;;;;;;;5030138;28;20116;-79
2022/02/19 04:12:31;;;;;;;5.63;1.00;;;;;;;;;;5030848;28;20050;-80
2022/02/19 04:14:57;;;;;;;6.18;1.20;;;;;;;;;;5029674;28;20037;-79
2022/02/19 04:17:23;;;;;;;6.13;1.70;;;;;;;;;;5029461;28;26079;-80
2022/02/19 04:19:50;;;;;;;4.28;0.70;;;;;;;;;;5030487;28;20049;-79
2022/02/19 04:22:17;;;;;;;1.33;0.50;;;;;;;;;;5029499;28;20138;-79
2022/02/19 04:24:42;;;;;;;8.60;1.17;;;;;;;;;;5013314;28;20421;-79
2022/02/19 04:27:08;;;;;;;8.13;1.17;;;;;;;;;;5013115;28;20041;-79
2022/02/19 04:29:34;;;;;;;6.22;1.40;;;;;;;;;;5013449;28;20087;-79
2022/02/19 04:32:00;;;;;;;4.25;1.55;;;;;;;;;;5031228;28;20051;-79
2022/02/19 04:34:26;;;;;;;5.93;1.40;;;;;;;;;;5014286;28;20041;-79
2022/02/19 04:36:52;;;;;;;6.25;1.05;;;;;;;;;;5030371;28;20221;-79
2022/02/19 04:39:18;;;;;;;3.65;1.30;;;;;;;;;;5012593;28;20131;-79
2022/02/19 04:41:44;;;;;;;5.25;0.88;;;;;;;;;;5029693;28;20467;-79
2022/02/19 04:44:10;;;;;;;6.75;1.27;;;;;;;;;;5014330;28;20061;-79
2022/02/19 04:46:35;;;;;;;5.47;1.33;;;;;;;;;;5030826;28;20105;-79
2022/02/19 04:49:01;;;;;;;4.50;1.70;;;;;;;;;;5015754;28;20098;-79
2022/02/19 04:51:27;;;;;;;6.53;1.60;;;;;;;;;;5013655;28;20041;-79
2022/02/19 04:53:52;;;;;;;4.93;1.45;;;;;;;;;;5031256;28;20711;-79
2022/02/19 04:56:18;;;;;;;4.78;1.20;;;;;;;;;;5013418;28;20073;-79
2022/02/19 04:58:44;;;;;;;5.93;1.65;;;;;;;;;;5015677;28;20037;-79
2022/02/19 05:01:09;;;;;;;3.78;1.30;;;;;;;;;;5029876;28;20391;-79
2022/02/19 05:03:37;;;;;;;6.18;1.00;;;;;;;;;;5029363;28;20041;-79
2022/02/19 05:06:03;;;;;;;7.15;1.40;;;;;;;;;;5028714;28;20596;-79
2022/02/19 05:08:29;;;;;;;6.43;1.33;;;;;;;;;;5029829;28;20047;-79
2022/02/19 05:10:55;;;;;;;7.35;1.70;;;;;;;;;;5012759;28;20033;-79
2022/02/19 05:13:21;;;;;;;5.10;1.50;;;;;;;;;;5029792;28;20112;-79
2022/02/19 05:15:47;;;;;;;6.20;1.88;;;;;;;;;;5012357;28;20041;-79
2022/02/19 05:18:14;;;;;;;5.15;1.30;;;;;;;;;;5028501;28;20037;-79
2022/02/19 05:20:40;;;;;;;4.40;1.33;;;;;;;;;;5030962;28;20409;-79
2022/02/19 05:23:06;;;;;;;6.47;1.23;;;;;;;;;;5027844;28;20210;-79
2022/02/19 05:25:32;;;;;;;4.97;1.20;;;;;;;;;;5013306;28;20595;-79
2022/02/19 05:27:57;;;;;;;5.72;1.88;;;;;;;;;;5029250;28;20053;-79
2022/02/19 05:30:23;;;;;;;4.28;1.25;;;;;;;;;;5032634;28;20041;-79
2022/02/19 05:32:49;;;;;;;3.42;1.38;;;;;;;;;;5013792;28;20107;-79
2022/02/19 05:35:15;;;;;;;4.65;1.10;;;;;;;;;;5029007;28;20067;-79
2022/02/19 05:37:40;;;;;;;4.80;1.30;;;;;;;;;;5014345;28;20045;-79
2022/02/19 05:40:07;;;;;;;1.40;0.80;;;;;;;;;;5014573;28;20033;-79
2022/02/19 05:42:32;;;;;;;5.38;1.58;;;;;;;;;;5029881;28;20140;-79
2022/02/19 05:44:58;;;;;;;7.25;1.50;;;;;;;;;;5029681;28;20076;-79
2022/02/19 05:47:25;;;;;;;4.18;0.93;;;;;;;;;;5045758;28;20067;-79
2022/02/19 05:49:51;;;;;;;8.52;1.40;;;;;;;;;;5029814;28;20045;-80
2022/02/19 05:52:17;;;;;;;5.25;1.10;;;;;;;;;;5028378;28;20269;-79
2022/02/19 05:54:43;;;;;;;2.47;0.75;;;;;;;;;;5029500;28;20069;-80
2022/02/19 05:57:09;;;;;;;2.70;0.88;;;;;;;;;;5013078;28;20119;-80
2022/02/19 05:59:34;;;;;;;2.15;1.05;;;;;;;;;;5013830;28;20411;-80
2022/02/19 06:02:00;;;;;;;5.50;2.05;;;;;;;;;;5025486;28;20037;-80
2022/02/19 06:04:27;;;;;;;3.83;1.23;;;;;;;;;;5015515;28;20100;-79
2022/02/19 06:06:53;;;;;;;7.32;0.93;;;;;;;;;;5016684;28;20060;-80
2022/02/19 06:09:19;;;;;;;8.13;1.48;;;;;;;;;;5016359;28;20068;-79
2022/02/19 06:11:45;;;;;;;3.47;0.82;;;;;;;;;;5033468;28;20502;-79
2022/02/19 06:14:11;;;;;;;6.35;0.82;;;;;;;;;;5050482;28;20053;-80
2022/02/19 06:16:37;;;;;;;4.47;0.98;;;;;;;;;;5032467;28;20170;-79
2022/02/19 06:19:03;;;;;;;3.50;1.13;;;;;;;;;;5033283;28;20083;-79
2022/02/19 06:21:29;;;;;;;1.70;0.75;;;;;;;;;;5032710;28;20056;-79
2022/02/19 06:23:54;;;;;;;6.50;1.00;;;;;;;;;;5013597;28;21545;-80
2022/02/19 06:26:20;;;;;;;5.25;1.27;;;;;;;;;;5015994;28;20099;-76
2022/02/19 06:28:46;;;;;;;3.53;1.00;;;;;;;;;;5010522;28;20565;-77
2022/02/19 06:31:11;;;;;;;7.10;1.05;;;;;;;;;;5026728;28;20049;-77
2022/02/19 06:33:37;;;;;;;4.63;1.10;;;;;;;;;;5025715;28;20037;-77
2022/02/19 06:36:03;;;;;;;3.92;0.85;;;;;;;;;;5027159;28;20098;-77
2022/02/19 06:38:29;;;;;;;4.57;1.00;;;;;;;;;;5026234;28;20041;-77
2022/02/19 06:40:54;;;;;;;6.28;1.45;;;;;;;;;;5026592;28;20433;-77
2022/02/19 06:43:20;;;;;;;5.00;1.00;;;;;;;;;;5007218;28;20510;-77
2022/02/19 06:45:46;;;;;;;4.53;0.88;;;;;;;;;;5026423;28;20044;-77
2022/02/19 06:48:12;;;;;;;4.43;0.85;;;;;;;;;;5043984;28;20593;-77
2022/02/19 06:50:38;;;;;;;5.82;1.00;;;;;;;;;;5022726;28;20029;-77
2022/02/19 06:53:04;;;;;;;2.08;0.73;;;;;;;;;;5010428;28;20041;-77
2022/02/19 06:55:30;;;;;;;5.20;0.98;;;;;;;;;;5042167;28;20095;-77
2022/02/19 06:57:56;;;;;;;2.15;0.70;;;;;;;;;;5021760;28;20104;-77
2022/02/19 07:00:21;;;;;;;8.40;1.13;;;;;;;;;;5027297;28;20033;-77
2022/02/19 07:02:47;;;;;;;4.03;1.17;;;;;;;;;;5005360;28;20430;-77
2022/02/19 07:05:13;;;;;;;2.95;1.23;;;;;;;;;;5027822;28;20045;-77
2022/02/19 07:07:39;;;;;;;0.90;0.65;;;;;;;;;;5010070;28;20048;-77
2022/02/19 07:10:06;;;;;;;2.05;0.65;;;;;;;;;;5026860;28;20052;-78
2022/02/19 07:12:32;;;;;;;3.15;1.15;;;;;;;;;;5027191;28;20037;-77
2022/02/19 07:14:58;;;;;;;6.53;1.50;;;;;;;;;;5011228;28;20064;-77
2022/02/19 07:17:23;;;;;;;5.10;1.65;;;;;;;;;;5024739;28;20048;-77
2022/02/19 07:19:49;;;;;;;4.05;1.08;;;;;;;;;;5026136;28;20033;-77
2022/02/19 07:22:15;;;;;;;3.83;0.95;;;;;;;;;;5026037;28;20139;-77
2022/02/19 07:24:40;;;;;;;2.80;0.90;;;;;;;;;;5009324;28;20565;-77
2022/02/19 07:27:08;;;;;;;4.50;1.02;;;;;;;;;;5025770;28;20040;-77
2022/02/19 07:29:34;;;;;;;2.47;1.38;;;;;;;;;;5026762;28;20119;-77
2022/02/19 07:32:00;;;;;;;2.58;1.17;;;;;;;;;;5042929;28;20063;-77
2022/02/19 07:34:25;;;;;;;6.45;0.98;;;;;;;;;;5025887;28;20583;-77
2022/02/19 07:36:51;;;;;;;3.17;1.55;;;;;;;;;;5025848;28;20048;-77
2022/02/19 07:39:17;;;;;;;3.25;0.70;;;;;;;;;;5026391;28;20159;-77
2022/02/19 07:41:42;;;;;;;2.65;1.02;;;;;;;;;;5009328;28;20041;-77
2022/02/19 07:44:08;;;;;;;4.65;0.73;;;;;;;;;;5025145;28;20098;-77
2022/02/19 07:46:34;;;;;;;3.60;0.90;;;;;;;;;;5027879;28;20041;-77
2022/02/19 07:58:18;;;;;;;5.90;1.00;;;;;;;;;;5010003;28;20111;-77
2022/02/19 08:00:04;;;;;;;2.90;0.80;;;;;;;;;;5027046;28;20152;-77
2022/02/19 08:02:30;;;;;;;3.30;1.35;;;;;;;;;;5024078;28;20049;-77
2022/02/19 08:04:56;;;;;;;3.58;1.40;;;;;;;;;;5024619;28;20048;-77
2022/02/19 08:07:22;;;;;;;4.80;1.42;;;;;;;;;;5022360;28;20052;-78
2022/02/19 08:09:48;;;;;;;5.78;1.13;;;;;;;;;;5043187;28;20409;-78
2022/02/19 08:12:14;;;;;;;4.22;1.23;;;;;;;;;;5008475;28;20417;-77
2022/02/19 08:14:39;;;;;;;2.95;0.98;;;;;;;;;;5043259;28;20028;-78
2022/02/19 08:17:05;;;;;;;2.92;1.20;;;;;;;;;;5026086;28;20068;-77
2022/02/19 08:19:31;;;;;;;5.50;1.02;;;;;;;;;;5041961;28;20040;-77
2022/02/19 08:21:57;;;;;;;6.65;0.93;;;;;;;;;;5043210;28;20413;-78
2022/02/19 08:24:23;;;;;;;3.47;0.98;;;;;;;;;;5008665;28;20202;-78
2022/02/19 08:26:49;;;;;;;3.13;1.58;;;;;;;;;;5022974;28;20033;-78
2022/02/19 08:29:15;;;;;;;5.05;1.30;;;;;;;;;;5040129;28;20119;-78
2022/02/19 08:31:40;;;;;;;1.83;0.75;;;;;;;;;;5024272;28;20102;-78
2022/02/19 08:34:06;;;;;;;3.30;1.13;;;;;;;;;;5025245;28;20068;-78
2022/02/19 08:36:32;;;;;;;5.43;1.00;;;;;;;;;;5025050;28;20045;-78
2022/02/19 08:38:57;;;;;;;3.55;0.80;;;;;;;;;;5024770;28;20071;-78
2022/02/19 08:41:23;;;;;;;6.13;1.00;;;;;;;;;;5041828;28;20039;-78
2022/02/19 08:43:49;;;;;;;3.35;1.00;;;;;;;;;;5040616;28;20041;-78
2022/02/19 08:46:14;;;;;;;3.22;0.80;;;;;;;;;;5027670;28;20719;-78
2022/02/19 08:48:40;;;;;;;6.43;1.05;;;;;;;;;;5042087;28;20040;-78
2022/02/19 08:51:06;;;;;;;2.92;0.60;;;;;;;;;;5024565;28;20075;-78
2022/02/19 08:53:32;;;;;;;2.97;0.80;;;;;;;;;;5019596;28;20034;-78
2022/02/19 08:55:57;;;;;;;4.88;0.88;;;;;;;;;;5042514;28;20049;-78
2022/02/19 08:58:23;;;;;;;4.22;1.15;;;;;;;;;;5024740;28;20033;-78
2022/02/19 09:00:49;;;;;;;4.10;0.93;;;;;;;;;;5008859;28;20045;-78
2022/02/19 09:03:15;;;;;;;4.13;0.90;;;;;;;;;;5024591;28;20044;-78
2022/02/19 09:05:42;;;;;;;4.47;1.45;;;;;;;;;;5009058;28;20501;-78
2022/02/19 09:08:08;;;;;;;2.35;1.05;;;;;;;;;;5025371;28;20091;-77
2022/02/19 09:10:33;;;;;;;2.85;1.10;;;;;;;;;;5025759;28;20036;-78
2022/02/19 09:12:59;;;;;;;8.05;1.20;;;;;;;;;;5008939;28;20044;-78
2022/02/19 09:15:26;;;;;;;3.47;0.95;;;;;;;;;;5024458;28;20032;-78
2022/02/19 09:17:51;;;;;;;3.45;0.70;;;;;;;;;;5023548;28;20121;-77
2022/02/19 09:20:19;;;;;;;2.13;1.08;;;;;;;;;;5008536;28;20464;-78
2022/02/19 09:22:45;;;;;;;5.85;1.30;;;;;;;;;;5025270;28;20037;-78
2022/02/19 09:25:11;;;;;;;3.15;0.90;;;;;;;;;;5024281;28;20047;-78
2022/02/19 09:27:38;;;;;;;5.50;0.80;;;;;;;;;;5008505;28;20045;-78
2022/02/19 09:30:06;;;;;;;2.80;0.90;;;;;;;;;;5007817;28;20037;-78
2022/02/19 09:32:32;;;;;;;4.07;1.23;;;;;;;;;;5025167;28;20099;-78
2022/02/19 09:34:58;;;;;;;5.32;0.85;;;;;;;;;;5007270;28;20433;-78
2022/02/19 09:37:27;;;;;;;5.32;1.50;;;;;;;;;;5023655;28;20486;-78
2022/02/19 09:39:53;;;;;;;6.18;2.20;;;;;;;;;;5013636;28;20359;-78
2022/02/19 09:42:19;;;;;;;6.25;1.85;;;;;;;;;;5030745;28;20637;-78
2022/02/19 09:44:44;;;;;;;9.98;2.85;;;;;;;;;;5048545;28;20095;-78
2022/02/19 09:47:11;;;;;;;5.75;1.50;;;;;;;;;;5047815;28;20553;-78
2022/02/19 09:49:39;;;;;;;6.47;1.80;;;;;;;;;;5031298;28;20067;-78
2022/02/19 09:52:05;;;;;;;6.18;1.30;;;;;;;;;;5029090;28;20365;-78
2022/02/19 09:54:31;;;;;;;5.28;0.95;;;;;;;;;;5028315;28;20041;-78
2022/02/19 09:56:57;;;;;;;4.38;1.00;;;;;;;;;;5028165;28;20045;-78
2022/02/19 09:59:23;;;;;;;5.28;1.42;;;;;;;;;;5043339;28;20033;-78
2022/02/19 10:02:06;;;;;;;3.85;1.02;;;;;;;;;;5011711;28;20063;-78
2022/02/19 10:04:32;;;;;;;5.93;1.05;;;;;;;;;;5007838;28;20127;-78
2022/02/19 10:06:59;;;;;;;3.92;1.10;;;;;;;;;;5012459;28;20049;-78
2022/02/19 10:09:27;;;;;;;2.45;0.90;;;;;;;;;;5028346;28;20079;-78
2022/02/19 10:11:53;;;;;;;5.68;1.40;;;;;;;;;;5012463;28;20457;-78
2022/02/19 10:14:31;;;;;;;4.07;1.40;;;;;;;;;;5011087;28;20120;-78
2022/02/19 10:17:04;;;;;;;6.65;1.63;;;;;;;;;;5006784;28;20040;-78
2022/02/19 10:19:30;;;;;;;4.60;0.95;;;;;;;;;;5045046;28;20408;-78
2022/02/19 10:22:12;;;;;;;9.73;1.67;;;;;;;;;;5010951;28;20064;-78
2022/02/19 10:24:38;;;;;;;3.75;0.98;;;;;;;;;;5010109;28;20490;-78
2022/02/19 10:27:04;;;;;;;4.22;1.08;;;;;;;;;;5028630;28;20048;-78
2022/02/19 10:29:33;;;;;;;5.13;0.85;;;;;;;;;;5028540;28;20116;-78
2022/02/19 10:31:58;;;;;;;4.88;1.15;;;;;;;;;;5028180;28;20522;-78
2022/02/19 10:34:24;;;;;;;6.63;1.77;;;;;;;;;;5028446;28;20033;-78
2022/02/19 10:36:54;;;;;;;5.03;2.75;;;;;;;;;;5011659;28;20646;-78
2022/02/19 10:39:29;;;;;;;3.58;1.20;;;;;;;;;;5028768;28;20856;-78
2022/02/19 10:41:57;;;;;;;4.30;1.65;;;;;;;;;;5046094;28;20033;-78
2022/02/19 10:44:25;;;;;;;6.03;1.25;;;;;;;;;;5011413;28;20048;-78
2022/02/19 10:46:55;;;;;;;3.63;1.02;;;;;;;;;;5010982;28;20109;-79
2022/02/19 10:49:21;;;;;;;5.22;1.15;;;;;;;;;;5032901;28;20037;-79
2022/02/19 10:51:47;;;;;;;6.43;1.08;;;;;;;;;;5010994;28;20414;-79
2022/02/19 10:54:13;;;;;;;4.70;1.15;;;;;;;;;;5030855;28;20094;-78
2022/02/19 10:56:41;;;;;;;2.33;0.90;;;;;;;;;;5010188;28;20040;-78
2022/02/19 10:59:13;;;;;;;4.32;1.30;;;;;;;;;;5026371;28;20045;-78
2022/02/19 11:01:49;;;;;;;7.75;1.13;;;;;;;;;;5027385;28;20492;-78
2022/02/19 11:04:17;;;;;;;5.13;1.00;;;;;;;;;;5010748;28;20061;-78
2022/02/19 11:06:44;;;;;;;2.72;0.70;;;;;;;;;;5029155;28;20036;-79
2022/02/19 11:09:11;;;;;;;4.75;1.70;;;;;;;;;;5011004;28;20060;-79
2022/02/19 11:11:39;;;;;;;4.35;1.02;;;;;;;;;;5010976;28;20037;-79
2022/02/19 11:14:06;;;;;;;7.20;1.55;;;;;;;;;;5025351;28;20041;-80
2022/02/19 11:16:34;;;;;;;4.00;0.98;;;;;;;;;;5009451;28;20036;-78
2022/02/19 11:19:00;;;;;;;6.93;1.45;;;;;;;;;;5029494;28;20409;-78
2022/02/19 11:21:30;;;;;;;5.18;0.95;;;;;;;;;;5012571;28;20041;-78
2022/02/19 11:24:00;;;;;;;5.80;1.58;;;;;;;;;;5013312;28;20512;-78
2022/02/19 11:26:25;;;;;;;4.28;1.17;;;;;;;;;;5012515;28;20061;-78
2022/02/19 11:29:05;;;;;;;11.63;5.00;;;;;;;;;;5012754;28;20025;-79
2022/02/19 11:31:32;;;;;;;9.27;1.90;;;;;;;;;;5043544;28;20037;-78
2022/02/19 11:34:02;;;;;;;6.30;1.85;;;;;;;;;;5028813;28;20575;-79
2022/02/19 11:36:29;;;;;;;6.72;1.80;;;;;;;;;;5011267;28;20056;-78
2022/02/19 11:38:55;;;;;;;5.28;1.70;;;;;;;;;;5029114;28;20144;-78
2022/02/19 11:41:36;;;;;;;4.38;1.20;;;;;;;;;;5012851;28;20037;-79
2022/02/19 11:44:03;;;;;;;6.60;1.95;;;;;;;;;;5012664;28;20041;-79
2022/02/19 11:46:29;;;;;;;3.90;1.30;;;;;;;;;;5029024;28;20041;-78
2022/02/19 11:48:55;;;;;;;4.55;1.20;;;;;;;;;;5030107;28;20471;-78
2022/02/19 11:51:27;;;;;;;4.75;1.13;;;;;;;;;;5029490;28;20144;-78
2022/02/19 11:54:06;;;;;;;7.38;1.45;;;;;;;;;;5029071;28;20051;-78
2022/02/19 11:56:36;;;;;;;5.43;1.20;;;;;;;;;;5046391;28;20041;-78
2022/02/19 11:59:07;;;;;;;2.42;0.55;;;;;;;;;;5029832;28;20243;-78
2022/02/19 12:01:33;;;;;;;8.77;1.10;;;;;;;;;;5026590;28;20283;-79
2022/02/19 12:04:10;;;;;;;7.82;1.67;;;;;;;;;;5028194;28;20462;-78
2022/02/19 12:06:39;;;;;;;7.45;1.70;;;;;;;;;;5047269;28;20444;-79
2022/02/19 12:09:16;;;;;;;8.45;1.33;;;;;;;;;;5027842;28;20482;-78
2022/02/19 12:12:07;;;;;;;7.47;1.48;;;;;;;;;;5011788;28;20029;-78
2022/02/19 12:14:43;;;;;;;6.05;1.48;;;;;;;;;;5026781;28;20065;-78
2022/02/19 12:17:10;;;;;;;7.85;1.20;;;;;;;;;;5044647;28;20129;-78
2022/02/19 12:19:58;;;;;;;2.20;1.20;;;;;;;;;;5029145;28;20033;-79
2022/02/19 12:22:52;;;;;;;6.53;1.40;;;;;;;;;;5044535;28;20124;-79
2022/02/19 12:25:18;;;;;;;7.47;1.65;;;;;;;;;;5011772;28;20047;-78
2022/02/19 12:27:44;;;;;;;4.85;1.13;;;;;;;;;;5010024;28;20417;-78
2022/02/19 12:30:24;;;;;;;6.20;1.00;;;;;;;;;;5019695;28;20116;-79
2022/02/19 12:32:52;;;;;;;5.95;1.65;;;;;;;;;;5010478;28;20033;-79
2022/02/19 12:35:18;;;;;;;5.10;1.70;;;;;;;;;;4995491;28;20060;-79
2022/02/19 12:37:45;;;;;;;5.30;1.30;;;;;;;;;;5029335;28;20414;-79
2022/02/19 12:40:19;;;;;;;5.50;1.25;;;;;;;;;;5027476;28;20083;-79
2022/02/19 12:42:47;;;;;;;6.25;1.63;;;;;;;;;;5010343;28;20037;-79
2022/02/19 12:45:13;;;;;;;6.72;1.25;;;;;;;;;;5029219;28;20036;-79
2022/02/19 12:47:39;;;;;;;6.05;1.35;;;;;;;;;;5028461;28;20180;-79
2022/02/19 12:50:07;;;;;;;5.03;0.52;;;;;;;;;;5045885;28;20108;-79
2022/02/19 12:52:33;;;;;;;3.50;1.00;;;;;;;;;;5029438;28;20037;-79
2022/02/19 12:54:59;;;;;;;5.55;1.08;;;;;;;;;;5010366;28;20047;-79
2022/02/19 12:57:25;;;;;;;3.65;0.90;;;;;;;;;;5011233;28;20128;-79
2022/02/19 12:59:52;;;;;;;7.95;1.00;;;;;;;;;;5029746;28;20444;-80
2022/02/19 13:02:22;;;;;;;4.72;1.08;;;;;;;;;;5029273;28;20517;-80
2022/02/19 13:04:49;;;;;;;6.18;1.80;;;;;;;;;;5026415;28;20045;-80
2022/02/19 13:07:22;;;;;;;4.78;1.05;;;;;;;;;;5030178;28;20292;-80
2022/02/19 13:09:49;;;;;;;3.45;1.17;;;;;;;;;;5029018;28;20064;-80
2022/02/19 13:12:16;;;;;;;3.58;0.90;;;;;;;;;;5015471;28;20128;-80
2022/02/19 13:14:50;;;;;;;5.53;1.02;;;;;;;;;;5031371;28;20426;-80
2022/02/19 13:17:15;;;;;;;4.85;0.98;;;;;;;;;;5033831;28;20110;-80
2022/02/19 13:19:42;;;;;;;3.58;1.15;;;;;;;;;;5034760;28;20437;-80
2022/02/19 13:22:13;;;;;;;3.30;1.05;;;;;;;;;;5016982;28;20108;-80
2022/02/19 13:24:43;;;;;;;5.15;1.20;;;;;;;;;;5014196;28;20047;-80
2022/02/19 13:27:09;;;;;;;5.78;0.93;;;;;;;;;;5033563;28;20053;-80
2022/02/19 13:29:35;;;;;;;5.72;1.20;;;;;;;;;;5033654;28;20037;-80
2022/02/19 13:32:04;;;;;;;4.97;1.00;;;;;;;;;;5033932;28;20057;-80
2022/02/19 13:34:33;;;;;;;5.60;1.42;;;;;;;;;;5015914;28;20049;-80
2022/02/19 13:36:59;;;;;;;4.82;0.95;;;;;;;;;;5033788;28;20041;-80
2022/02/19 13:39:34;;;;;;;5.40;1.30;;;;;;;;;;5032666;28;20037;-80
2022/02/19 13:42:00;;;;;;;3.65;1.05;;;;;;;;;;5030014;28;20051;-80
2022/02/19 13:44:28;;;;;;;5.65;1.05;;;;;;;;;;5014457;28;20280;-80
2022/02/19 13:46:55;;;;;;;6.07;1.10;;;;;;;;;;5030153;28;20521;-80
2022/02/19 13:49:22;;;;;;;7.28;1.33;;;;;;;;;;5047523;28;20132;-80
2022/02/19 13:51:48;;;;;;;5.32;1.25;;;;;;;;;;5013254;28;20349;-79
2022/02/19 13:54:18;;;;;;;7.50;2.33;;;;;;;;;;5031816;28;20195;-80
2022/02/19 13:56:46;;;;;;;7.82;1.98;;;;;;;;;;5046829;28;20064;-79
2022/02/19 13:59:19;;;;;;;4.03;1.50;;;;;;;;;;5030281;28;20041;-79
2022/02/19 14:01:46;;;;;;;3.63;1.05;;;;;;;;;;5030690;28;20533;-79
2022/02/19 14:04:31;;;;;;;4.80;1.23;;;;;;;;;;5031398;28;20041;-79
2022/02/19 14:07:07;;;;;;;2.92;0.93;;;;;;;;;;5028449;28;20045;-79
2022/02/19 14:09:34;;;;;;;3.05;1.70;;;;;;;;;;5013029;28;20553;-80
2022/02/19 14:12:01;;;;;;;8.75;2.92;;;;;;;;;;5044596;28;20037;-80
2022/02/19 14:14:29;;;;;;;6.85;2.53;;;;;;;;;;5019402;28;20049;-80
2022/02/19 14:17:02;;;;;;;5.15;1.20;;;;;;;;;;5030171;28;20047;-80
2022/02/19 14:19:28;;;;;;;4.03;1.50;;;;;;;;;;5029070;28;20059;-80
2022/02/19 14:22:09;;;;;;;4.68;1.42;;;;;;;;;;5031311;28;20041;-80
2022/02/19 14:24:36;;;;;;;5.85;1.85;;;;;;;;;;5027973;28;20037;-80
2022/02/19 14:27:12;;;;;;;3.92;1.10;;;;;;;;;;5015228;28;20051;-80
2022/02/19 14:29:39;;;;;;;5.15;2.17;;;;;;;;;;5014499;28;20078;-80
2022/02/19 14:32:06;;;;;;;3.90;1.30;;;;;;;;;;5006718;28;20064;-80
2022/02/19 14:34:32;;;;;;;5.20;1.17;;;;;;;;;;5030344;28;20103;-80
2022/02/19 14:36:58;;;;;;;3.88;1.15;;;;;;;;;;5011156;28;20045;-79
2022/02/19 14:39:28;;;;;;;5.93;2.10;;;;;;;;;;5014149;28;20029;-80
2022/02/19 14:41:54;;;;;;;5.28;1.50;;;;;;;;;;5032094;28;20047;-80
2022/02/19 14:44:22;;;;;;;7.45;2.08;;;;;;;;;;5030795;28;20092;-80
2022/02/19 14:46:47;;;;;;;5.63;1.10;;;;;;;;;;5026600;28;20505;-80
2022/02/19 14:49:14;;;;;;;3.65;1.45;;;;;;;;;;5028606;28;20037;-80
2022/02/19 14:51:40;;;;;;;5.28;1.80;;;;;;;;;;5015421;28;20037;-80
2022/02/19 14:54:06;;;;;;;5.38;1.58;;;;;;;;;;5034123;28;20085;-80
2022/02/19 14:56:32;;;;;;;3.42;1.10;;;;;;;;;;5048928;28;20056;-80
2022/02/19 14:58:58;;;;;;;4.68;1.15;;;;;;;;;;5011205;28;22542;-79
2022/02/19 15:01:29;;;;;;;6.40;1.52;;;;;;;;;;5031196;28;20083;-80
2022/02/19 15:03:55;;;;;;;5.00;1.33;;;;;;;;;;5032694;28;20044;-80
2022/02/19 15:06:23;;;;;;;4.80;1.40;;;;;;;;;;5032354;28;20501;-79
2022/02/19 15:08:50;;;;;;;6.38;1.30;;;;;;;;;;5034587;28;20091;-79
2022/02/19 15:11:16;;;;;;;2.90;1.10;;;;;;;;;;5024409;28;20045;-80
2022/02/19 15:13:42;;;;;;;3.53;1.05;;;;;;;;;;5028402;28;20067;-79
2022/02/19 15:16:12;;;;;;;5.18;1.30;;;;;;;;;;5012738;28;20116;-79
2022/02/19 15:18:38;;;;;;;5.30;1.30;;;;;;;;;;5029360;28;20044;-80
2022/02/19 15:21:05;;;;;;;4.43;1.23;;;;;;;;;;5013107;28;20037;-80
2022/02/19 15:23:31;;;;;;;5.10;1.25;;;;;;;;;;5028366;28;20060;-79
2022/02/19 15:25:57;;;;;;;4.20;1.30;;;;;;;;;;5028970;28;20037;-79
2022/02/19 15:28:22;;;;;;;6.93;2.40;;;;;;;;;;5028056;28;20144;-79
2022/02/19 15:30:48;;;;;;;3.50;1.25;;;;;;;;;;5013730;28;20029;-79
2022/02/19 15:33:14;;;;;;;2.80;1.05;;;;;;;;;;5029558;28;20406;-80
2022/02/19 15:35:40;;;;;;;7.45;1.30;;;;;;;;;;5028590;28;20052;-80
2022/02/19 15:38:05;;;;;;;5.72;1.75;;;;;;;;;;5016560;28;20041;-79
2022/02/19 15:40:31;;;;;;;8.65;2.83;;;;;;;;;;5040224;28;20045;-80
2022/02/19 15:42:57;;;;;;;6.78;1.60;;;;;;;;;;5014284;28;20080;-80
2022/02/19 15:45:22;;;;;;;5.75;2.13;;;;;;;;;;5030798;28;20067;-80
2022/02/19 15:47:48;;;;;;;2.15;1.05;;;;;;;;;;5045658;28;20545;-79
2022/02/19 15:50:14;;;;;;;5.82;1.48;;;;;;;;;;5029726;28;20039;-79
2022/02/19 15:52:40;;;;;;;5.93;1.63;;;;;;;;;;5029259;28;20045;-79
2022/02/19 15:55:06;;;;;;;6.15;1.50;;;;;;;;;;5016610;28;20037;-79
2022/02/19 15:57:32;;;;;;;4.18;1.33;;;;;;;;;;5029073;28;20082;-79
2022/02/19 15:59:58;;;;;;;5.88;1.40;;;;;;;;;;5011585;28;20041;-79
2022/02/19 16:02:23;;;;;;;4.22;1.20;;;;;;;;;;5027728;28;20044;-79
2022/02/19 16:04:49;;;;;;;6.70;2.33;;;;;;;;;;5045787;28;20118;-79
2022/02/19 16:07:15;;;;;;;9.02;1.27;;;;;;;;;;5045184;28;20098;-79
2022/02/19 16:09:40;;;;;;;7.03;1.80;;;;;;;;;;5012368;28;20063;-79
2022/02/19 16:12:07;;;;;;;3.53;1.30;;;;;;;;;;5008510;28;20052;-79
2022/02/19 16:14:33;;;;;;;4.20;1.00;;;;;;;;;;5027923;28;20086;-80
2022/02/19 16:16:59;;;;;;;5.88;1.40;;;;;;;;;;5029926;28;20071;-79
2022/02/19 16:19:25;;;;;;;5.55;1.33;;;;;;;;;;5045246;28;20041;-79
2022/02/19 16:21:51;;;;;;;3.90;1.33;;;;;;;;;;5044251;28;20041;-79
2022/02/19 16:24:16;;;;;;;5.85;1.65;;;;;;;;;;5045992;28;20045;-79
2022/02/19 16:26:42;;;;;;;8.82;2.15;;;;;;;;;;5028281;28;20462;-79
2022/02/19 16:29:08;;;;;;;6.72;1.85;;;;;;;;;;5028609;28;20037;-79
2022/02/19 16:31:34;;;;;;;7.75;1.75;;;;;;;;;;5044649;28;20091;-79